Other Surface Observations
Issued by NWS Great Falls, MT

Home | Current Version | Previous Version | Text Only | Print | Product List | Glossary On
Versions: 1 2 3 4 5 6 7 8 9 10 11 12 13 14 15 16 17 18 19 20 21 22 23 24 25 26 27 28 29 30 31 32 33 34 35 36 37 38 39 40 41 42 43 44 45 46 47 48 49 50
000
SXUS55 KTFX 270844
OSOTFX
AREA AWOS OBSERVATIONS
NATIONAL WEATHER SERVICE GREAT FALLS MT
0244 AM MDT SAT AUG 27 2016

METAR KPO1 270845Z AUTO 00000KT 10SM 09/07 A2993 RMK POPLAR
METAR K1S3 270845Z AUTO 03003KT 10SM 13/10 A2992 RMK FORSYTH
METAR KS71 270845Z AUTO 07006KT 10SM 11/07 A2984 RMK CHINOOK
METAR K38S 270845Z AUTO 00000KT 10SM 08/01 A3001 RMK DEER LODGE
METAR K6S5 270845Z AUTO 15007KT 10SM 13/01 A2994 RMK HAMILTON
METAR KS59 270845Z AUTO 00000KT 10SM 15/05 A2981 RMK LIBBY
METAR K88M 270845Z AUTO 14010G15KT 10SM 20/06 A2980 RMK EUREKA



USA.gov is the U.S. government's official web portal to all federal, state and local government web resources and services.